MSC Orchestra — 3EJF3 — position and weather

sailwx.info

Track history (hours):
 
Tides and Currents Weather Stations Pressure Air Temp Water Temp Dewpoint Dewpoint Depression Visibility Wind Speed Wind Dir Waves Ship Positions

MSC Orchestra

Last reported at 2018-Jul-19 06:00 UTC. Time now 2018-Jul-19 05:59 UTC.
Position N 60°55' E 007°10'.

Length 294 m; draft 7.7 m.

Type: Ship. MMSI: 372497000.

Date/timePositionNaut miles runAvg speedWind from/ knotsBaromVisibWave heightAir tempDewpointWater temp
2018-Jul-19 06:00N 60°55' E 007°10'612.3
2018-Jul-19 05:29N 61°00' E 007°03'815.3
2018-Jul-19 05:00N 61°07' E 006°55'817.1
2018-Jul-19 04:30N 61°11' E 006°40'816.4
2018-Jul-19 04:00N 61°06' E 006°26'917.6
2018-Jul-19 03:30N 61°08' E 006°08'917.8
2018-Jul-19 03:00N 61°08' E 005°50'917.5
2018-Jul-19 02:29N 61°05' E 005°32'816.0
2018-Jul-19 02:00N 61°05' E 005°16'816.3
2018-Jul-19 01:30N 61°10' E 005°03'510.9
2018-Jul-19 01:00N 61°14' E 004°54'917.4
2018-Jul-19 00:30N 61°14' E 004°36'815.6
2018-Jul-19 00:00N 61°20' E 004°27'917.9
2018-Jul-18 23:29N 61°30' E 004°24'817.7
2018-Jul-18 23:00N 61°38' E 004°25'917.2
2018-Jul-18 22:30N 61°46' E 004°29'918.0
2018-Jul-18 21:59N 61°55' E 004°37'918.1
2018-Jul-18 21:30N 62°03' E 004°44'918.4
2018-Jul-18 21:00N 62°11' E 004°52'918.4
2018-Jul-18 20:30N 62°18' E 005°06'918.2
2018-Jul-18 20:00N 62°24' E 005°21'917.8
2018-Jul-18 19:30N 62°27' E 005°39'917.8
2018-Jul-18 19:00N 62°27' E 005°58'714.1
2018-Jul-18 18:30N 62°23' E 006°11'1019.8
2018-Jul-18 18:00N 62°26' E 006°32'918.7
2018-Jul-18 17:30N 62°26' E 006°52'917.5
2018-Jul-18 16:59N 62°18' E 006°59'917.9
2018-Jul-18 16:30N 62°10' E 007°01'4 8.4
2018-Jul-18 16:00N 62°06' E 007°06'3 5.3
2018-Jul-18 15:29N 62°06' E 007°12'0 0.0
2018-Jul-18 14:58N 62°06' E 007°12'0 0.0
2018-Jul-18 14:28N 62°06' E 007°12'0 0.0
2018-Jul-18 13:30N 62°06' E 007°12'0 0.0
2018-Jul-18 13:00N 62°06' E 007°12'0 0.0
2018-Jul-18 12:30N 62°06' E 007°12'0 0.0
2018-Jul-18 12:00N 62°06' E 007°12'0 0.0
2018-Jul-18 11:29N 62°06' E 007°12'0 0.0
2018-Jul-18 10:29N 62°06' E 007°12'0 0.0
2018-Jul-18 09:59N 62°06' E 007°12'0 0.0
2018-Jul-18 09:29N 62°06' E 007°12'0 0.0
2018-Jul-18 08:58N 62°06' E 007°12'0 0.0
2018-Jul-18 08:28N 62°06' E 007°12'0 0.0
2018-Jul-18 07:59N 62°06' E 007°12'3 5.2
2018-Jul-18 07:30N 62°07' E 007°07'5 2.6
2018-Jul-18 05:29N 62°07' E 006°56'713.7
2018-Jul-18 05:00N 62°13' E 007°02'714.7
2018-Jul-18 04:30N 62°20' E 006°57'814.9
2018-Jul-18 03:59N 62°27' E 006°50'816.2
2018-Jul-18 03:30N 62°26' E 006°32'816.8
2018-Jul-18 03:00N 62°24' E 006°15'815.3
2018-Jul-18 02:30N 62°26' E 005°59'916.7
2018-Jul-18 01:59N 62°30' E 005°43'816.6
2018-Jul-18 01:30N 62°29' E 005°25'816.8
2018-Jul-18 01:00N 62°25' E 005°10'917.1
2018-Jul-18 00:30N 62°18' E 004°58'917.1
2018-Jul-18 00:00N 62°12' E 004°47'917.4
2018-Jul-17 23:30N 62°04' E 004°39'917.5
2018-Jul-17 23:00N 61°56' E 004°32'917.7
2018-Jul-17 22:30N 61°48' E 004°25'15218.0
2018-Jul-17 14:02N 59°16' E 004°47'119.6
2018-Jul-17 14:00N 59°15' E 004°48'1019.8
2018-Jul-17 13:30N 59°08' E 005°00'919.0
2018-Jul-17 13:00N 59°07' E 005°19'816.9
2018-Jul-17 12:30N 59°04' E 005°34'713.9
2018-Jul-17 12:00N 58°59' E 005°43'1 1.2
2018-Jul-17 11:29N 58°58' E 005°44'0 0.0
2018-Jul-17 10:59N 58°58' E 005°44'0 0.0
2018-Jul-17 10:28N 58°58' E 005°44'0 0.0
2018-Jul-17 09:58N 58°58' E 005°44'0 0.0
2018-Jul-17 09:28N 58°58' E 005°44'0 0.0
2018-Jul-17 08:58N 58°58' E 005°44'0 0.0
2018-Jul-17 08:28N 58°58' E 005°44'0 0.0
2018-Jul-17 08:00N 58°58' E 005°44'0 0.0
2018-Jul-17 07:27N 58°58' E 005°44'0 0.0
2018-Jul-17 07:00N 58°58' E 005°44'0 0.0
2018-Jul-17 06:30N 58°58' E 005°44'0 0.0
2018-Jul-17 05:59N 58°58' E 005°44'0 0.0
2018-Jul-17 05:30N 58°58' E 005°44'0 0.6
2018-Jul-17 05:00N 58°59' E 005°43'611.2
2018-Jul-17 04:30N 59°03' E 005°36'612.9
2018-Jul-17 04:00N 58°56' E 005°33'713.8
2018-Jul-17 03:31N 58°50' E 005°28'611.5
2018-Jul-17 03:00N 58°45' E 005°23'510.9
2018-Jul-17 02:30N 58°39' E 005°21'611.8
2018-Jul-17 02:00N 58°34' E 005°19'611.9
2018-Jul-17 01:29N 58°28' E 005°17'511.1
2018-Jul-17 01:00N 58°22' E 005°21'612.0
2018-Jul-17 00:30N 58°18' E 005°29'1211.7
2018-Jul-16 23:30N 58°11' E 005°46'611.7
2018-Jul-16 22:59N 58°07' E 005°55'611.7
2018-Jul-16 22:28N 58°03' E 006°03'611.7
2018-Jul-16 21:58N 57°59' E 006°11'712.4
2018-Jul-16 21:27N 57°55' E 006°21'712.2
2018-Jul-16 20:54N 57°50' E 006°30'712.9
2018-Jul-16 20:23N 57°47' E 006°41'614.8
2018-Jul-16 19:58N 57°46' E 006°52'714.7
2018-Jul-16 19:30N 57°46' E 007°05'714.6
2018-Jul-16 19:00N 57°45' E 007°19'714.4
2018-Jul-16 18:30N 57°45' E 007°32'714.2
2018-Jul-16 17:59N 57°45' E 007°46'714.2
2018-Jul-16 17:29N 57°45' E 007°59'714.2
2018-Jul-16 17:00N 57°45' E 008°13'714.1
2018-Jul-16 16:29N 57°46' E 008°26'713.9
2018-Jul-16 16:00N 57°46' E 008°39'713.8
2018-Jul-16 15:30N 57°46' E 008°51'713.7
2018-Jul-16 15:00N 57°47' E 009°04'714.0
2018-Jul-16 14:31N 57°47' E 009°17'713.9
2018-Jul-16 14:01N 57°48' E 009°30'714.2
2018-Jul-16 13:30N 57°49' E 009°44'714.0
2018-Jul-16 13:00N 57°49' E 009°57'713.9
2018-Jul-16 12:30N 57°49' E 010°10'714.1
2018-Jul-16 12:00N 57°50' E 010°23'713.8
2018-Jul-16 11:30N 57°50' E 010°36'713.2
2018-Jul-16 11:00N 57°48' E 010°48'713.6
2018-Jul-16 10:31N 57°45' E 010°58'714.4
2018-Jul-16 10:01N 57°39' E 011°06'714.3
2018-Jul-16 09:30N 57°33' E 011°15'714.0
2018-Jul-16 09:00N 57°29' E 011°25'713.8
2018-Jul-16 08:30N 57°22' E 011°30'713.7
2018-Jul-16 08:00N 57°16' E 011°34'713.9
2018-Jul-16 07:30N 57°09' E 011°39'713.9
2018-Jul-16 07:00N 57°03' E 011°43'714.2
2018-Jul-16 06:30N 56°56' E 011°48'714.0
2018-Jul-16 06:00N 56°50' E 011°52'612.8
2018-Jul-16 05:30N 56°43' E 011°52'814.3
2018-Jul-16 04:56N 56°36' E 011°44'614.2
2018-Jul-16 04:30N 56°31' E 011°38'7213.9
2018-Jul-15 23:20N 55°22' E 011°02'516.4
2018-Jul-15 23:00N 55°17' E 011°04'713.1
2018-Jul-15 22:30N 55°10' E 011°04'816.6
2018-Jul-15 22:00N 55°02' E 011°03'816.8
2018-Jul-15 21:30N 54°55' E 010°55'917.2
2018-Jul-15 21:00N 54°46' E 010°53'815.7
2018-Jul-15 20:30N 54°40' E 011°00'917.4
2018-Jul-15 20:00N 54°36' E 011°14'917.6
2018-Jul-15 19:30N 54°32' E 011°28'917.5
2018-Jul-15 19:00N 54°28' E 011°41'816.8
2018-Jul-15 18:30N 54°23' E 011°52'917.4
2018-Jul-15 18:00N 54°16' E 012°01'610.6
2018-Jul-15 17:29N 54°11' E 012°06'0 0.4
2018-Jul-15 17:00N 54°11' E 012°06'0 0.0
2018-Jul-15 15:41N 54°11' E 012°06'0 0.0
2018-Jul-15 15:26N 54°11' E 012°06'0 0.0
2018-Jul-15 14:56N 54°11' E 012°06'0 0.0
2018-Jul-15 12:49N 54°11' E 012°06'0 0.0
2018-Jul-15 11:27N 54°11' E 012°06'0 0.0
2018-Jul-15 10:57N 54°11' E 012°06'0 0.0
2018-Jul-15 09:30N 54°11' E 012°06'0 0.0
2018-Jul-15 08:56N 54°11' E 012°06'0 0.0
2018-Jul-15 08:26N 54°11' E 012°06'0 0.0
2018-Jul-15 07:59N 54°11' E 012°06'0 0.0
2018-Jul-15 07:20N 54°11' E 012°06'0 0.0
2018-Jul-15 06:55N 54°11' E 012°06'0 0.0
2018-Jul-15 06:28N 54°11' E 012°06'0 0.0
2018-Jul-15 05:58N 54°11' E 012°06'0 0.7
2018-Jul-15 05:30N 54°10' E 012°06'1 1.9
2018-Jul-15 05:00N 54°11' E 012°05'611.3
2018-Jul-15 04:30N 54°16' E 012°01'4 8.7
2018-Jul-15 04:00N 54°20' E 011°58'4 7.9
2018-Jul-15 03:30N 54°24' E 011°56'4 7.2
2018-Jul-15 03:01N 54°26' E 012°01'4 7.4
2018-Jul-15 02:30N 54°27' E 012°08'4 7.9
2018-Jul-15 01:59N 54°30' E 012°11'4 8.8
2018-Jul-15 01:30N 54°34' E 012°13'4 8.6
2018-Jul-15 01:01N 54°38' E 012°17'4 8.7
2018-Jul-15 00:30N 54°42' E 012°22'8 8.4
2018-Jul-14 23:36N 54°48' E 012°29'1 8.2
2018-Jul-14 23:27N 54°49' E 012°30'4 8.2
2018-Jul-14 22:55N 54°52' E 012°35'15 7.8
2018-Jul-14 20:59N 55°07' E 012°38'4 7.6
2018-Jul-14 20:30N 55°11' E 012°38'4 7.5
2018-Jul-14 20:00N 55°15' E 012°38'4 7.5
2018-Jul-14 19:31N 55°18' E 012°37'4 7.5
2018-Jul-14 19:00N 55°22' E 012°38'4 7.5
2018-Jul-14 18:30N 55°26' E 012°39'4 7.5
2018-Jul-14 18:00N 55°29' E 012°41'4 7.8
2018-Jul-14 17:30N 55°33' E 012°42'3 7.1
2018-Jul-14 17:00N 55°37' E 012°42'510.5
2018-Jul-14 16:30N 55°42' E 012°41'2 3.7
2018-Jul-14 15:57N 55°43' E 012°38'0 0.0
2018-Jul-14 15:29N 55°43' E 012°38'0 0.0
2018-Jul-14 14:53N 55°43' E 012°38'0 0.0
2018-Jul-14 14:26N 55°43' E 012°38'0 0.0
2018-Jul-14 13:29N 55°43' E 012°38'0 0.0
2018-Jul-14 12:52N 55°43' E 012°38'0 0.0
2018-Jul-14 12:28N 55°43' E 012°38'0 0.0
2018-Jul-14 11:55N 55°43' E 012°38'0 0.0
2018-Jul-14 11:22N 55°43' E 012°38'0 0.0
2018-Jul-14 11:00N 55°43' E 012°38'0 0.0
2018-Jul-14 10:27N 55°43' E 012°38'0 0.0
2018-Jul-14 10:00N 55°43' E 012°38'0 0.0
2018-Jul-14 09:30N 55°43' E 012°38'0 0.0
2018-Jul-14 08:42N 55°43' E 012°38'0 0.0
2018-Jul-14 08:23N 55°43' E 012°38'0 0.0
2018-Jul-14 07:56N 55°43' E 012°38'0 0.0
2018-Jul-14 07:29N 55°43' E 012°38'0 0.0
2018-Jul-14 06:59N 55°43' E 012°38'0 0.0
2018-Jul-14 06:22N 55°43' E 012°38'0 0.0
2018-Jul-14 05:52N 55°43' E 012°38'0 0.5
2018-Jul-14 05:30N 55°43' E 012°38'2 4.0
2018-Jul-14 05:01N 55°42' E 012°41'5 9.7
2018-Jul-14 04:30N 55°37' E 012°42'3 6.9
2018-Jul-14 04:00N 55°34' E 012°42'5 9.9
2018-Jul-14 03:31N 55°29' E 012°43'612.1
2018-Jul-14 03:00N 55°23' E 012°41'510.6
2018-Jul-14 02:30N 55°18' E 012°44'612.4
2018-Jul-14 02:00N 55°16' E 012°55'612.5
2018-Jul-14 01:30N 55°15' E 013°06'612.8
2018-Jul-14 01:00N 55°15' E 013°17'612.7
2018-Jul-14 00:30N 55°14' E 013°28'814.2
2018-Jul-13 23:57N 55°13' E 013°42'614.1
2018-Jul-13 23:30N 55°13' E 013°53'713.8
2018-Jul-13 23:00N 55°13' E 014°05'612.7
2018-Jul-13 22:30N 55°13' E 014°16'612.3
2018-Jul-13 22:00N 55°18' E 014°23'612.6
2018-Jul-13 21:30N 55°23' E 014°30'612.2
2018-Jul-13 21:00N 55°27' E 014°38'612.4
2018-Jul-13 20:30N 55°30' E 014°47'612.2
2018-Jul-13 20:00N 55°33' E 014°56'612.1
2018-Jul-13 19:30N 55°36' E 015°06'612.0
2018-Jul-13 19:00N 55°39' E 015°15'611.8
2018-Jul-13 18:30N 55°42' E 015°24'611.8
2018-Jul-13 18:00N 55°45' E 015°33'713.2
2018-Jul-13 17:30N 55°48' E 015°43'713.9
2018-Jul-13 17:00N 55°52' E 015°54'713.8
2018-Jul-13 16:30N 55°55' E 016°05'713.6
2018-Jul-13 16:00N 55°58' E 016°16'714.2
2018-Jul-13 15:30N 56°02' E 016°27'714.3
2018-Jul-13 15:00N 56°05' E 016°38'714.2
2018-Jul-13 14:30N 56°10' E 016°48'1313.4
2018-Jul-13 13:30N 56°18' E 017°07'814.9
2018-Jul-13 12:59N 56°23' E 017°18'914.9
2018-Jul-13 12:24N 56°28' E 017°31'815.0
2018-Jul-13 11:53N 56°33' E 017°42'615.1
2018-Jul-13 11:30N 56°36' E 017°50'715.0
2018-Jul-13 11:01N 56°41' E 018°01'18114.8
2018-Jul-12 22:46N 59°04' E 021°30'714.7
2018-Jul-12 22:18N 59°10' E 021°37'414.8
2018-Jul-12 22:00N 59°12' E 021°44'714.2
2018-Jul-12 21:30N 59°15' E 021°57'1314.5
2018-Jul-12 20:35N 59°18' E 022°23'114.5
2018-Jul-12 20:29N 59°18' E 022°25'814.5
2018-Jul-12 19:58N 59°20' E 022°40'714.7
2018-Jul-12 19:30N 59°21' E 022°53'815.0
2018-Jul-12 19:00N 59°23' E 023°07'714.9
2018-Jul-12 18:30N 59°24' E 023°21'715.0
2018-Jul-12 18:00N 59°26' E 023°36'714.9
2018-Jul-12 17:30N 59°27' E 023°50'715.0
2018-Jul-12 17:00N 59°29' E 024°04'815.0
2018-Jul-12 16:30N 59°30' E 024°19'713.9
2018-Jul-12 16:00N 59°30' E 024°33'612.7
2018-Jul-12 15:30N 59°31' E 024°45'4 6.9
2018-Jul-12 15:00N 59°27' E 024°46'0 0.0
2018-Jul-12 14:30N 59°27' E 024°46'0 0.0
2018-Jul-12 14:00N 59°27' E 024°46'0 0.0
2018-Jul-12 13:29N 59°27' E 024°46'0 0.0
2018-Jul-12 12:59N 59°27' E 024°46'0 0.0
2018-Jul-12 12:29N 59°27' E 024°46'0 0.0
2018-Jul-12 11:59N 59°27' E 024°46'0 0.0
2018-Jul-12 11:29N 59°27' E 024°46'0 0.0
2018-Jul-12 10:58N 59°27' E 024°46'0 0.0
2018-Jul-12 10:28N 59°27' E 024°46'0 0.0
2018-Jul-12 09:58N 59°27' E 024°46'0 0.0
2018-Jul-12 09:30N 59°27' E 024°46'0 0.0
2018-Jul-12 09:00N 59°27' E 024°46'0 0.0
2018-Jul-12 08:30N 59°27' E 024°46'0 0.0
2018-Jul-12 08:00N 59°27' E 024°46'0 0.0
2018-Jul-12 07:29N 59°27' E 024°46'0 0.0
2018-Jul-12 06:58N 59°27' E 024°46'0 0.0
2018-Jul-12 06:27N 59°27' E 024°46'0 0.0
2018-Jul-12 05:56N 59°27' E 024°46'0 0.9
2018-Jul-12 05:30N 59°27' E 024°46'510.7
2018-Jul-12 05:01N 59°33' E 024°43'713.3
2018-Jul-12 04:31N 59°39' E 024°39'714.3
2018-Jul-12 04:00N 59°46' E 024°44'713.7
2018-Jul-12 03:31N 59°50' E 024°54'714.7
2018-Jul-12 03:01N 59°51' E 025°08'714.3
2018-Jul-12 02:30N 59°52' E 025°23'714.6
2018-Jul-12 02:01N 59°54' E 025°37'714.5
2018-Jul-12 01:31N 59°55' E 025°51'714.5
2018-Jul-12 01:00N 59°57' E 026°05'1119.7
2018-Jul-12 00:27N 60°00' E 026°26'612.6
2018-Jul-12 00:00N 60°01' E 026°37'816.4
2018-Jul-11 23:30N 59°60' E 026°53'1018.5
2018-Jul-11 22:58N 60°02' E 027°13'816.4
2018-Jul-11 22:30N 60°06' E 027°26'918.7
2018-Jul-11 22:00N 60°11' E 027°41'816.5
2018-Jul-11 21:30N 60°11' E 027°58'917.8
2018-Jul-11 21:00N 60°08' E 028°15'917.4
2018-Jul-11 20:30N 60°04' E 028°30'917.6
2018-Jul-11 20:00N 60°03' E 028°48'917.4
2018-Jul-11 19:30N 60°03' E 029°05'1514.7
2018-Jul-11 18:27N 60°01' E 029°35'711.0
2018-Jul-11 17:49N 59°58' E 029°48'4 9.6
2018-Jul-11 17:25N 59°56' E 029°55'4 9.3
2018-Jul-11 17:00N 59°56' E 030°03'4 8.5
2018-Jul-11 16:30N 59°57' E 030°11'0 0.2
2018-Jul-11 15:52N 59°57' E 030°11'0 0.0
2018-Jul-11 14:37N 59°57' E 030°11'0 0.0
2018-Jul-11 14:21N 59°57' E 030°11'0 0.0
2018-Jul-11 13:51N 59°57' E 030°11'0 0.0
2018-Jul-11 13:17N 59°57' E 030°11'0 0.0
2018-Jul-11 12:54N 59°57' E 030°11'0 0.0
2018-Jul-11 12:29N 59°57' E 030°11'0 0.0
2018-Jul-11 11:59N 59°57' E 030°11'0 0.0
2018-Jul-11 11:11N 59°57' E 030°11'0 0.0
2018-Jul-11 10:55N 59°57' E 030°11'0 0.0
2018-Jul-11 10:19N 59°57' E 030°11'0 0.0
2018-Jul-11 09:50N 59°57' E 030°11'0 0.0
2018-Jul-11 08:46N 59°57' E 030°11'0 0.0
2018-Jul-11 04:44N 59°57' E 030°11'0 0.0
2018-Jul-11 04:12N 59°57' E 030°11'0 0.0
2018-Jul-11 03:55N 59°57' E 030°11'0 0.3
2018-Jul-11 03:30N 59°57' E 030°11'2 4.6
2018-Jul-11 03:00N 59°57' E 030°07'510.0
2018-Jul-11 02:29N 59°56' E 029°56'510.8
2018-Jul-11 02:00N 59°58' E 029°47'1210.9
2018-Jul-11 00:55N 60°01' E 029°24'615.1
2018-Jul-11 00:29N 60°02' E 029°11'611.5
2018-Jul-10 23:56N 60°02' E 028°58'510.5
2018-Jul-10 23:30N 60°02' E 028°49'611.8
2018-Jul-10 23:00N 60°02' E 028°38'611.8
2018-Jul-10 22:30N 60°03' E 028°26'611.6
2018-Jul-10 22:00N 60°07' E 028°17'712.6
2018-Jul-10 21:28N 60°09' E 028°04'611.9
2018-Jul-10 21:00N 60°10' E 027°53'510.5
2018-Jul-10 20:30N 60°10' E 027°43'611.1
2018-Jul-10 20:00N 60°07' E 027°33'611.6
2018-Jul-10 19:30N 60°04' E 027°23'812.8
2018-Jul-10 18:53N 59°60' E 027°09'513.4
2018-Jul-10 18:31N 59°58' E 026°60'815.1
2018-Jul-10 17:58N 59°59' E 026°44'612.5
2018-Jul-10 17:29N 59°58' E 026°32'714.9
2018-Jul-10 17:01N 59°57' E 026°18'913.2
2018-Jul-10 16:19N 59°54' E 026°00'613.5
2018-Jul-10 15:51N 59°53' E 025°48'513.8
2018-Jul-10 15:30N 59°52' E 025°39'713.3
2018-Jul-10 15:00N 59°52' E 025°26'713.4
2018-Jul-10 14:30N 59°55' E 025°13'713.3
2018-Jul-10 14:00N 59°58' E 025°01'612.2
2018-Jul-10 13:30N 60°03' E 024°54'612.8
2018-Jul-10 13:00N 60°09' E 024°55'0 0.1
2018-Jul-10 12:28N 60°09' E 024°55'0 0.0
2018-Jul-10 11:58N 60°09' E 024°55'0 0.0
2018-Jul-10 11:28N 60°09' E 024°55'0 0.0
2018-Jul-10 10:58N 60°09' E 024°55'0 0.0
2018-Jul-10 10:30N 60°09' E 024°55'0 0.0
2018-Jul-10 10:00N 60°09' E 024°55'0 0.0
2018-Jul-10 09:30N 60°09' E 024°55'0 0.0
2018-Jul-10 09:00N 60°09' E 024°55'0 0.0
2018-Jul-10 08:30N 60°09' E 024°55'0 0.0
2018-Jul-10 07:59N 60°09' E 024°55'0 0.0
2018-Jul-10 07:29N 60°09' E 024°55'0 0.0
2018-Jul-10 06:59N 60°09' E 024°55'0 0.0
2018-Jul-10 06:29N 60°09' E 024°55'0 0.0
2018-Jul-10 05:58N 60°09' E 024°55'0 0.0
2018-Jul-10 05:29N 60°09' E 024°55'1 1.7
2018-Jul-10 05:01N 60°08' E 024°54'612.8
2018-Jul-10 04:31N 60°02' E 024°55'510.5
2018-Jul-10 04:01N 59°58' E 024°49'714.5
2018-Jul-10 03:30N 59°51' E 024°42'714.6
2018-Jul-10 03:00N 59°45' E 024°35'1414.6
2018-Jul-10 02:03N 59°41' E 024°08'114.8
2018-Jul-10 02:00N 59°41' E 024°07'814.7
2018-Jul-10 01:30N 59°38' E 023°53'714.6
2018-Jul-10 01:00N 59°36' E 023°40'714.6
2018-Jul-10 00:30N 59°34' E 023°26'714.7
2018-Jul-10 00:00N 59°32' E 023°12'714.6
2018-Jul-09 23:30N 59°30' E 022°58'714.8
2018-Jul-09 23:00N 59°28' E 022°44'714.6
2018-Jul-09 22:30N 59°24' E 022°32'714.4
2018-Jul-09 22:00N 59°20' E 022°20'714.4
2018-Jul-09 21:30N 59°15' E 022°09'714.4
2018-Jul-09 21:00N 59°11' E 021°58'714.3
2018-Jul-09 20:30N 59°06' E 021°48'2314.1
2018-Jul-09 18:55N 58°48' E 021°21'16614.9
2018-Jul-09 07:48N 56°39' E 018°08'718.0
2018-Jul-09 07:24N 56°34' E 017°58'717.9
2018-Jul-09 07:00N 56°30' E 017°48'1417.9
2018-Jul-09 06:15N 56°22' E 017°29'  
Track history (hours):
 
Tides and Currents Weather Stations Pressure Air Temp Water Temp Dewpoint Dewpoint Depression Visibility Wind Speed Wind Dir Waves Ship Positions

MSC Orchestra

Last reported at 2018-Jul-19 06:00 UTC. Time now 2018-Jul-19 05:59 UTC.
Position N 60°55' E 007°10'.

Length 294 m; draft 7.7 m.

Type: Ship. MMSI: 372497000.

Date/timePositionNaut miles runAvg speedWind from/ knotsBaromVisibWave heightAir tempDewpointWater temp
2018-Jul-19 06:00N 60°55' E 007°10'612.3
2018-Jul-19 05:29N 61°00' E 007°03'815.3
2018-Jul-19 05:00N 61°07' E 006°55'817.1
2018-Jul-19 04:30N 61°11' E 006°40'816.4
2018-Jul-19 04:00N 61°06' E 006°26'917.6
2018-Jul-19 03:30N 61°08' E 006°08'917.8
2018-Jul-19 03:00N 61°08' E 005°50'917.5
2018-Jul-19 02:29N 61°05' E 005°32'816.0
2018-Jul-19 02:00N 61°05' E 005°16'816.3
2018-Jul-19 01:30N 61°10' E 005°03'510.9
2018-Jul-19 01:00N 61°14' E 004°54'917.4
2018-Jul-19 00:30N 61°14' E 004°36'815.6
2018-Jul-19 00:00N 61°20' E 004°27'917.9
2018-Jul-18 23:29N 61°30' E 004°24'817.7
2018-Jul-18 23:00N 61°38' E 004°25'917.2
2018-Jul-18 22:30N 61°46' E 004°29'918.0
2018-Jul-18 21:59N 61°55' E 004°37'918.1
2018-Jul-18 21:30N 62°03' E 004°44'918.4
2018-Jul-18 21:00N 62°11' E 004°52'918.4
2018-Jul-18 20:30N 62°18' E 005°06'918.2
2018-Jul-18 20:00N 62°24' E 005°21'917.8
2018-Jul-18 19:30N 62°27' E 005°39'917.8
2018-Jul-18 19:00N 62°27' E 005°58'714.1
2018-Jul-18 18:30N 62°23' E 006°11'1019.8
2018-Jul-18 18:00N 62°26' E 006°32'918.7
2018-Jul-18 17:30N 62°26' E 006°52'917.5
2018-Jul-18 16:59N 62°18' E 006°59'917.9
2018-Jul-18 16:30N 62°10' E 007°01'4 8.4
2018-Jul-18 16:00N 62°06' E 007°06'3 5.3
2018-Jul-18 15:29N 62°06' E 007°12'0 0.0
2018-Jul-18 14:58N 62°06' E 007°12'0 0.0
2018-Jul-18 14:28N 62°06' E 007°12'0 0.0
2018-Jul-18 13:30N 62°06' E 007°12'0 0.0
2018-Jul-18 13:00N 62°06' E 007°12'0 0.0
2018-Jul-18 12:30N 62°06' E 007°12'0 0.0
2018-Jul-18 12:00N 62°06' E 007°12'0 0.0
2018-Jul-18 11:29N 62°06' E 007°12'0 0.0
2018-Jul-18 10:29N 62°06' E 007°12'0 0.0
2018-Jul-18 09:59N 62°06' E 007°12'0 0.0
2018-Jul-18 09:29N 62°06' E 007°12'0 0.0
2018-Jul-18 08:58N 62°06' E 007°12'0 0.0
2018-Jul-18 08:28N 62°06' E 007°12'0 0.0
2018-Jul-18 07:59N 62°06' E 007°12'3 5.2
2018-Jul-18 07:30N 62°07' E 007°07'5 2.6
2018-Jul-18 05:29N 62°07' E 006°56'713.7
2018-Jul-18 05:00N 62°13' E 007°02'714.7
2018-Jul-18 04:30N 62°20' E 006°57'814.9
2018-Jul-18 03:59N 62°27' E 006°50'816.2
2018-Jul-18 03:30N 62°26' E 006°32'816.8
2018-Jul-18 03:00N 62°24' E 006°15'815.3
2018-Jul-18 02:30N 62°26' E 005°59'916.7
2018-Jul-18 01:59N 62°30' E 005°43'816.6
2018-Jul-18 01:30N 62°29' E 005°25'816.8
2018-Jul-18 01:00N 62°25' E 005°10'917.1
2018-Jul-18 00:30N 62°18' E 004°58'917.1
2018-Jul-18 00:00N 62°12' E 004°47'917.4
2018-Jul-17 23:30N 62°04' E 004°39'917.5
2018-Jul-17 23:00N 61°56' E 004°32'917.7
2018-Jul-17 22:30N 61°48' E 004°25'15218.0
2018-Jul-17 14:02N 59°16' E 004°47'119.6
2018-Jul-17 14:00N 59°15' E 004°48'1019.8
2018-Jul-17 13:30N 59°08' E 005°00'919.0
2018-Jul-17 13:00N 59°07' E 005°19'816.9
2018-Jul-17 12:30N 59°04' E 005°34'713.9
2018-Jul-17 12:00N 58°59' E 005°43'1 1.2
2018-Jul-17 11:29N 58°58' E 005°44'0 0.0
2018-Jul-17 10:59N 58°58' E 005°44'0 0.0
2018-Jul-17 10:28N 58°58' E 005°44'0 0.0
2018-Jul-17 09:58N 58°58' E 005°44'0 0.0
2018-Jul-17 09:28N 58°58' E 005°44'0 0.0
2018-Jul-17 08:58N 58°58' E 005°44'0 0.0
2018-Jul-17 08:28N 58°58' E 005°44'0 0.0
2018-Jul-17 08:00N 58°58' E 005°44'0 0.0
2018-Jul-17 07:27N 58°58' E 005°44'0 0.0
2018-Jul-17 07:00N 58°58' E 005°44'0 0.0
2018-Jul-17 06:30N 58°58' E 005°44'0 0.0
2018-Jul-17 05:59N 58°58' E 005°44'0 0.0
2018-Jul-17 05:30N 58°58' E 005°44'0 0.6
2018-Jul-17 05:00N 58°59' E 005°43'611.2
2018-Jul-17 04:30N 59°03' E 005°36'612.9
2018-Jul-17 04:00N 58°56' E 005°33'713.8
2018-Jul-17 03:31N 58°50' E 005°28'611.5
2018-Jul-17 03:00N 58°45' E 005°23'510.9
2018-Jul-17 02:30N 58°39' E 005°21'611.8
2018-Jul-17 02:00N 58°34' E 005°19'611.9
2018-Jul-17 01:29N 58°28' E 005°17'511.1
2018-Jul-17 01:00N 58°22' E 005°21'612.0
2018-Jul-17 00:30N 58°18' E 005°29'1211.7
2018-Jul-16 23:30N 58°11' E 005°46'611.7
2018-Jul-16 22:59N 58°07' E 005°55'611.7
2018-Jul-16 22:28N 58°03' E 006°03'611.7
2018-Jul-16 21:58N 57°59' E 006°11'712.4
2018-Jul-16 21:27N 57°55' E 006°21'712.2
2018-Jul-16 20:54N 57°50' E 006°30'712.9
2018-Jul-16 20:23N 57°47' E 006°41'614.8
2018-Jul-16 19:58N 57°46' E 006°52'714.7
2018-Jul-16 19:30N 57°46' E 007°05'714.6
2018-Jul-16 19:00N 57°45' E 007°19'714.4
2018-Jul-16 18:30N 57°45' E 007°32'714.2
2018-Jul-16 17:59N 57°45' E 007°46'714.2
2018-Jul-16 17:29N 57°45' E 007°59'714.2
2018-Jul-16 17:00N 57°45' E 008°13'714.1
2018-Jul-16 16:29N 57°46' E 008°26'713.9
2018-Jul-16 16:00N 57°46' E 008°39'713.8
2018-Jul-16 15:30N 57°46' E 008°51'713.7
2018-Jul-16 15:00N 57°47' E 009°04'714.0
2018-Jul-16 14:31N 57°47' E 009°17'713.9
2018-Jul-16 14:01N 57°48' E 009°30'714.2
2018-Jul-16 13:30N 57°49' E 009°44'714.0
2018-Jul-16 13:00N 57°49' E 009°57'713.9
2018-Jul-16 12:30N 57°49' E 010°10'714.1
2018-Jul-16 12:00N 57°50' E 010°23'713.8
2018-Jul-16 11:30N 57°50' E 010°36'713.2
2018-Jul-16 11:00N 57°48' E 010°48'713.6
2018-Jul-16 10:31N 57°45' E 010°58'714.4
2018-Jul-16 10:01N 57°39' E 011°06'714.3
2018-Jul-16 09:30N 57°33' E 011°15'714.0
2018-Jul-16 09:00N 57°29' E 011°25'713.8
2018-Jul-16 08:30N 57°22' E 011°30'713.7
2018-Jul-16 08:00N 57°16' E 011°34'713.9
2018-Jul-16 07:30N 57°09' E 011°39'713.9
2018-Jul-16 07:00N 57°03' E 011°43'714.2
2018-Jul-16 06:30N 56°56' E 011°48'714.0
2018-Jul-16 06:00N 56°50' E 011°52'612.8
2018-Jul-16 05:30N 56°43' E 011°52'814.3
2018-Jul-16 04:56N 56°36' E 011°44'614.2
2018-Jul-16 04:30N 56°31' E 011°38'7213.9
2018-Jul-15 23:20N 55°22' E 011°02'516.4
2018-Jul-15 23:00N 55°17' E 011°04'713.1
2018-Jul-15 22:30N 55°10' E 011°04'816.6
2018-Jul-15 22:00N 55°02' E 011°03'816.8
2018-Jul-15 21:30N 54°55' E 010°55'917.2
2018-Jul-15 21:00N 54°46' E 010°53'815.7
2018-Jul-15 20:30N 54°40' E 011°00'917.4
2018-Jul-15 20:00N 54°36' E 011°14'917.6
2018-Jul-15 19:30N 54°32' E 011°28'917.5
2018-Jul-15 19:00N 54°28' E 011°41'816.8
2018-Jul-15 18:30N 54°23' E 011°52'917.4
2018-Jul-15 18:00N 54°16' E 012°01'610.6
2018-Jul-15 17:29N 54°11' E 012°06'0 0.4
2018-Jul-15 17:00N 54°11' E 012°06'0 0.0
2018-Jul-15 15:41N 54°11' E 012°06'0 0.0
2018-Jul-15 15:26N 54°11' E 012°06'0 0.0
2018-Jul-15 14:56N 54°11' E 012°06'0 0.0
2018-Jul-15 12:49N 54°11' E 012°06'0 0.0
2018-Jul-15 11:27N 54°11' E 012°06'0 0.0
2018-Jul-15 10:57N 54°11' E 012°06'0 0.0
2018-Jul-15 09:30N 54°11' E 012°06'0 0.0
2018-Jul-15 08:56N 54°11' E 012°06'0 0.0
2018-Jul-15 08:26N 54°11' E 012°06'0 0.0
2018-Jul-15 07:59N 54°11' E 012°06'0 0.0
2018-Jul-15 07:20N 54°11' E 012°06'0 0.0
2018-Jul-15 06:55N 54°11' E 012°06'0 0.0
2018-Jul-15 06:28N 54°11' E 012°06'0 0.0
2018-Jul-15 05:58N 54°11' E 012°06'0 0.7
2018-Jul-15 05:30N 54°10' E 012°06'1 1.9
2018-Jul-15 05:00N 54°11' E 012°05'611.3
2018-Jul-15 04:30N 54°16' E 012°01'4 8.7
2018-Jul-15 04:00N 54°20' E 011°58'4 7.9
2018-Jul-15 03:30N 54°24' E 011°56'4 7.2
2018-Jul-15 03:01N 54°26' E 012°01'4 7.4
2018-Jul-15 02:30N 54°27' E 012°08'4 7.9
2018-Jul-15 01:59N 54°30' E 012°11'4 8.8
2018-Jul-15 01:30N 54°34' E 012°13'4 8.6
2018-Jul-15 01:01N 54°38' E 012°17'4 8.7
2018-Jul-15 00:30N 54°42' E 012°22'8 8.4
2018-Jul-14 23:36N 54°48' E 012°29'1 8.2
2018-Jul-14 23:27N 54°49' E 012°30'4 8.2
2018-Jul-14 22:55N 54°52' E 012°35'15 7.8
2018-Jul-14 20:59N 55°07' E 012°38'4 7.6
2018-Jul-14 20:30N 55°11' E 012°38'4 7.5
2018-Jul-14 20:00N 55°15' E 012°38'4 7.5
2018-Jul-14 19:31N 55°18' E 012°37'4 7.5
2018-Jul-14 19:00N 55°22' E 012°38'4 7.5
2018-Jul-14 18:30N 55°26' E 012°39'4 7.5
2018-Jul-14 18:00N 55°29' E 012°41'4 7.8
2018-Jul-14 17:30N 55°33' E 012°42'3 7.1
2018-Jul-14 17:00N 55°37' E 012°42'510.5
2018-Jul-14 16:30N 55°42' E 012°41'2 3.7
2018-Jul-14 15:57N 55°43' E 012°38'0 0.0
2018-Jul-14 15:29N 55°43' E 012°38'0 0.0
2018-Jul-14 14:53N 55°43' E 012°38'0 0.0
2018-Jul-14 14:26N 55°43' E 012°38'0 0.0
2018-Jul-14 13:29N 55°43' E 012°38'0 0.0
2018-Jul-14 12:52N 55°43' E 012°38'0 0.0
2018-Jul-14 12:28N 55°43' E 012°38'0 0.0
2018-Jul-14 11:55N 55°43' E 012°38'0 0.0
2018-Jul-14 11:22N 55°43' E 012°38'0 0.0
2018-Jul-14 11:00N 55°43' E 012°38'0 0.0
2018-Jul-14 10:27N 55°43' E 012°38'0 0.0
2018-Jul-14 10:00N 55°43' E 012°38'0 0.0
2018-Jul-14 09:30N 55°43' E 012°38'0 0.0
2018-Jul-14 08:42N 55°43' E 012°38'0 0.0
2018-Jul-14 08:23N 55°43' E 012°38'0 0.0
2018-Jul-14 07:56N 55°43' E 012°38'0 0.0
2018-Jul-14 07:29N 55°43' E 012°38'0 0.0
2018-Jul-14 06:59N 55°43' E 012°38'0 0.0
2018-Jul-14 06:22N 55°43' E 012°38'0 0.0
2018-Jul-14 05:52N 55°43' E 012°38'0 0.5
2018-Jul-14 05:30N 55°43' E 012°38'2 4.0
2018-Jul-14 05:01N 55°42' E 012°41'5 9.7
2018-Jul-14 04:30N 55°37' E 012°42'3 6.9
2018-Jul-14 04:00N 55°34' E 012°42'5 9.9
2018-Jul-14 03:31N 55°29' E 012°43'612.1
2018-Jul-14 03:00N 55°23' E 012°41'510.6
2018-Jul-14 02:30N 55°18' E 012°44'612.4
2018-Jul-14 02:00N 55°16' E 012°55'612.5
2018-Jul-14 01:30N 55°15' E 013°06'612.8
2018-Jul-14 01:00N 55°15' E 013°17'612.7
2018-Jul-14 00:30N 55°14' E 013°28'814.2
2018-Jul-13 23:57N 55°13' E 013°42'614.1
2018-Jul-13 23:30N 55°13' E 013°53'713.8
2018-Jul-13 23:00N 55°13' E 014°05'612.7
2018-Jul-13 22:30N 55°13' E 014°16'612.3
2018-Jul-13 22:00N 55°18' E 014°23'612.6
2018-Jul-13 21:30N 55°23' E 014°30'612.2
2018-Jul-13 21:00N 55°27' E 014°38'612.4
2018-Jul-13 20:30N 55°30' E 014°47'612.2
2018-Jul-13 20:00N 55°33' E 014°56'612.1
2018-Jul-13 19:30N 55°36' E 015°06'612.0
2018-Jul-13 19:00N 55°39' E 015°15'611.8
2018-Jul-13 18:30N 55°42' E 015°24'611.8
2018-Jul-13 18:00N 55°45' E 015°33'713.2
2018-Jul-13 17:30N 55°48' E 015°43'713.9
2018-Jul-13 17:00N 55°52' E 015°54'713.8
2018-Jul-13 16:30N 55°55' E 016°05'713.6
2018-Jul-13 16:00N 55°58' E 016°16'714.2
2018-Jul-13 15:30N 56°02' E 016°27'714.3
2018-Jul-13 15:00N 56°05' E 016°38'714.2
2018-Jul-13 14:30N 56°10' E 016°48'1313.4
2018-Jul-13 13:30N 56°18' E 017°07'814.9
2018-Jul-13 12:59N 56°23' E 017°18'914.9
2018-Jul-13 12:24N 56°28' E 017°31'815.0
2018-Jul-13 11:53N 56°33' E 017°42'615.1
2018-Jul-13 11:30N 56°36' E 017°50'715.0
2018-Jul-13 11:01N 56°41' E 018°01'18114.8
2018-Jul-12 22:46N 59°04' E 021°30'714.7
2018-Jul-12 22:18N 59°10' E 021°37'414.8
2018-Jul-12 22:00N 59°12' E 021°44'714.2
2018-Jul-12 21:30N 59°15' E 021°57'1314.5
2018-Jul-12 20:35N 59°18' E 022°23'114.5
2018-Jul-12 20:29N 59°18' E 022°25'814.5
2018-Jul-12 19:58N 59°20' E 022°40'714.7
2018-Jul-12 19:30N 59°21' E 022°53'815.0
2018-Jul-12 19:00N 59°23' E 023°07'714.9
2018-Jul-12 18:30N 59°24' E 023°21'715.0
2018-Jul-12 18:00N 59°26' E 023°36'714.9
2018-Jul-12 17:30N 59°27' E 023°50'715.0
2018-Jul-12 17:00N 59°29' E 024°04'815.0
2018-Jul-12 16:30N 59°30' E 024°19'713.9
2018-Jul-12 16:00N 59°30' E 024°33'612.7
2018-Jul-12 15:30N 59°31' E 024°45'4 6.9
2018-Jul-12 15:00N 59°27' E 024°46'0 0.0
2018-Jul-12 14:30N 59°27' E 024°46'0 0.0
2018-Jul-12 14:00N 59°27' E 024°46'0 0.0
2018-Jul-12 13:29N 59°27' E 024°46'0 0.0
2018-Jul-12 12:59N 59°27' E 024°46'0 0.0
2018-Jul-12 12:29N 59°27' E 024°46'0 0.0
2018-Jul-12 11:59N 59°27' E 024°46'0 0.0
2018-Jul-12 11:29N 59°27' E 024°46'0 0.0
2018-Jul-12 10:58N 59°27' E 024°46'0 0.0
2018-Jul-12 10:28N 59°27' E 024°46'0 0.0
2018-Jul-12 09:58N 59°27' E 024°46'0 0.0
2018-Jul-12 09:30N 59°27' E 024°46'0 0.0
2018-Jul-12 09:00N 59°27' E 024°46'0 0.0
2018-Jul-12 08:30N 59°27' E 024°46'0 0.0
2018-Jul-12 08:00N 59°27' E 024°46'0 0.0
2018-Jul-12 07:29N 59°27' E 024°46'0 0.0
2018-Jul-12 06:58N 59°27' E 024°46'0 0.0
2018-Jul-12 06:27N 59°27' E 024°46'0 0.0
2018-Jul-12 05:56N 59°27' E 024°46'0 0.9
2018-Jul-12 05:30N 59°27' E 024°46'510.7
2018-Jul-12 05:01N 59°33' E 024°43'713.3
2018-Jul-12 04:31N 59°39' E 024°39'714.3
2018-Jul-12 04:00N 59°46' E 024°44'713.7
2018-Jul-12 03:31N 59°50' E 024°54'714.7
2018-Jul-12 03:01N 59°51' E 025°08'714.3
2018-Jul-12 02:30N 59°52' E 025°23'714.6
2018-Jul-12 02:01N 59°54' E 025°37'714.5
2018-Jul-12 01:31N 59°55' E 025°51'714.5
2018-Jul-12 01:00N 59°57' E 026°05'1119.7
2018-Jul-12 00:27N 60°00' E 026°26'612.6
2018-Jul-12 00:00N 60°01' E 026°37'816.4
2018-Jul-11 23:30N 59°60' E 026°53'1018.5
2018-Jul-11 22:58N 60°02' E 027°13'816.4
2018-Jul-11 22:30N 60°06' E 027°26'918.7
2018-Jul-11 22:00N 60°11' E 027°41'816.5
2018-Jul-11 21:30N 60°11' E 027°58'917.8
2018-Jul-11 21:00N 60°08' E 028°15'917.4
2018-Jul-11 20:30N 60°04' E 028°30'917.6
2018-Jul-11 20:00N 60°03' E 028°48'917.4
2018-Jul-11 19:30N 60°03' E 029°05'1514.7
2018-Jul-11 18:27N 60°01' E 029°35'711.0
2018-Jul-11 17:49N 59°58' E 029°48'4 9.6
2018-Jul-11 17:25N 59°56' E 029°55'4 9.3
2018-Jul-11 17:00N 59°56' E 030°03'4 8.5
2018-Jul-11 16:30N 59°57' E 030°11'0 0.2
2018-Jul-11 15:52N 59°57' E 030°11'0 0.0
2018-Jul-11 14:37N 59°57' E 030°11'0 0.0
2018-Jul-11 14:21N 59°57' E 030°11'0 0.0
2018-Jul-11 13:51N 59°57' E 030°11'0 0.0
2018-Jul-11 13:17N 59°57' E 030°11'0 0.0
2018-Jul-11 12:54N 59°57' E 030°11'0 0.0
2018-Jul-11 12:29N 59°57' E 030°11'0 0.0
2018-Jul-11 11:59N 59°57' E 030°11'0 0.0
2018-Jul-11 11:11N 59°57' E 030°11'0 0.0
2018-Jul-11 10:55N 59°57' E 030°11'0 0.0
2018-Jul-11 10:19N 59°57' E 030°11'0 0.0
2018-Jul-11 09:50N 59°57' E 030°11'0 0.0
2018-Jul-11 08:46N 59°57' E 030°11'0 0.0
2018-Jul-11 04:44N 59°57' E 030°11'0 0.0
2018-Jul-11 04:12N 59°57' E 030°11'0 0.0
2018-Jul-11 03:55N 59°57' E 030°11'0 0.3
2018-Jul-11 03:30N 59°57' E 030°11'2 4.6
2018-Jul-11 03:00N 59°57' E 030°07'510.0
2018-Jul-11 02:29N 59°56' E 029°56'510.8
2018-Jul-11 02:00N 59°58' E 029°47'1210.9
2018-Jul-11 00:55N 60°01' E 029°24'615.1
2018-Jul-11 00:29N 60°02' E 029°11'611.5
2018-Jul-10 23:56N 60°02' E 028°58'510.5
2018-Jul-10 23:30N 60°02' E 028°49'611.8
2018-Jul-10 23:00N 60°02' E 028°38'611.8
2018-Jul-10 22:30N 60°03' E 028°26'611.6
2018-Jul-10 22:00N 60°07' E 028°17'712.6
2018-Jul-10 21:28N 60°09' E 028°04'611.9
2018-Jul-10 21:00N 60°10' E 027°53'510.5
2018-Jul-10 20:30N 60°10' E 027°43'611.1
2018-Jul-10 20:00N 60°07' E 027°33'611.6
2018-Jul-10 19:30N 60°04' E 027°23'812.8
2018-Jul-10 18:53N 59°60' E 027°09'513.4
2018-Jul-10 18:31N 59°58' E 026°60'815.1
2018-Jul-10 17:58N 59°59' E 026°44'612.5
2018-Jul-10 17:29N 59°58' E 026°32'714.9
2018-Jul-10 17:01N 59°57' E 026°18'913.2
2018-Jul-10 16:19N 59°54' E 026°00'613.5
2018-Jul-10 15:51N 59°53' E 025°48'513.8
2018-Jul-10 15:30N 59°52' E 025°39'713.3
2018-Jul-10 15:00N 59°52' E 025°26'713.4
2018-Jul-10 14:30N 59°55' E 025°13'713.3
2018-Jul-10 14:00N 59°58' E 025°01'612.2
2018-Jul-10 13:30N 60°03' E 024°54'612.8
2018-Jul-10 13:00N 60°09' E 024°55'0 0.1
2018-Jul-10 12:28N 60°09' E 024°55'0 0.0
2018-Jul-10 11:58N 60°09' E 024°55'0 0.0
2018-Jul-10 11:28N 60°09' E 024°55'0 0.0
2018-Jul-10 10:58N 60°09' E 024°55'0 0.0
2018-Jul-10 10:30N 60°09' E 024°55'0 0.0
2018-Jul-10 10:00N 60°09' E 024°55'0 0.0
2018-Jul-10 09:30N 60°09' E 024°55'0 0.0
2018-Jul-10 09:00N 60°09' E 024°55'0 0.0
2018-Jul-10 08:30N 60°09' E 024°55'0 0.0
2018-Jul-10 07:59N 60°09' E 024°55'0 0.0
2018-Jul-10 07:29N 60°09' E 024°55'0 0.0
2018-Jul-10 06:59N 60°09' E 024°55'0 0.0
2018-Jul-10 06:29N 60°09' E 024°55'0 0.0
2018-Jul-10 05:58N 60°09' E 024°55'0 0.0
2018-Jul-10 05:29N 60°09' E 024°55'1 1.7
2018-Jul-10 05:01N 60°08' E 024°54'612.8
2018-Jul-10 04:31N 60°02' E 024°55'510.5
2018-Jul-10 04:01N 59°58' E 024°49'714.5
2018-Jul-10 03:30N 59°51' E 024°42'714.6
2018-Jul-10 03:00N 59°45' E 024°35'1414.6
2018-Jul-10 02:03N 59°41' E 024°08'114.8
2018-Jul-10 02:00N 59°41' E 024°07'814.7
2018-Jul-10 01:30N 59°38' E 023°53'714.6
2018-Jul-10 01:00N 59°36' E 023°40'714.6
2018-Jul-10 00:30N 59°34' E 023°26'714.7
2018-Jul-10 00:00N 59°32' E 023°12'714.6
2018-Jul-09 23:30N 59°30' E 022°58'714.8
2018-Jul-09 23:00N 59°28' E 022°44'714.6
2018-Jul-09 22:30N 59°24' E 022°32'714.4
2018-Jul-09 22:00N 59°20' E 022°20'714.4
2018-Jul-09 21:30N 59°15' E 022°09'714.4
2018-Jul-09 21:00N 59°11' E 021°58'714.3
2018-Jul-09 20:30N 59°06' E 021°48'2314.1
2018-Jul-09 18:55N 58°48' E 021°21'16614.9
2018-Jul-09 07:48N 56°39' E 018°08'718.0
2018-Jul-09 07:24N 56°34' E 017°58'717.9
2018-Jul-09 07:00N 56°30' E 017°48'1417.9
2018-Jul-09 06:15N 56°22' E 017°29'  

Dump ship's entire track history